Terminal Aerodrome Forecast
Issued by NWS Atlanta, GA

Home | Current Version | Previous Version | Text Only | Print | Product List | Glossary On
Versions: 1 2 3 4 5 6 7 8 9 10 11 12 13 14 15 16 17 18 19 20 21 22 23 24 25 26 27 28 29 30 31 32
000
FTUS42 KFFC 290924 AAA
TAFAHN
TAF AMD
KAHN 290924Z 2909/3006 09003KT 6SM BR SCT010 SCT080 BKN250
      TEMPO 2909/2912 5SM BR
     FM291200 08003KT 6SM BR BKN009 OVC015
     FM291400 09005KT P6SM BKN015 OVC050
     FM291800 11005KT P6SM VCSH BKN035 OVC150
     FM300000 VRB03KT P6SM VCSH BKN040 OVC120=

USA.gov is the U.S. government's official web portal to all federal, state and local government web resources and services.